sensor_id;sensor_type;location;lat;lon;timestamp;P1;durP1;ratioP1;P2;durP2;ratioP2
14209;SDS011;7188;56.070;12.698;2022-07-25T00:01:32;1.70;;;1.60;;
14209;SDS011;7188;56.070;12.698;2022-07-25T00:03:58;3.10;;;1.73;;
14209;SDS011;7188;56.070;12.698;2022-07-25T00:06:23;1.50;;;1.40;;
14209;SDS011;7188;56.070;12.698;2022-07-25T00:08:49;2.40;;;1.83;;
14209;SDS011;7188;56.070;12.698;2022-07-25T00:11:15;2.63;;;2.07;;
14209;SDS011;7188;56.070;12.698;2022-07-25T00:13:41;3.70;;;1.73;;
14209;SDS011;7188;56.070;12.698;2022-07-25T00:16:06;4.70;;;1.90;;
14209;SDS011;7188;56.070;12.698;2022-07-25T00:18:32;2.00;;;1.87;;
14209;SDS011;7188;56.070;12.698;2022-07-25T00:20:58;2.80;;;1.63;;
14209;SDS011;7188;56.070;12.698;2022-07-25T00:23:23;3.57;;;1.90;;
14209;SDS011;7188;56.070;12.698;2022-07-25T00:25:49;3.90;;;2.07;;
14209;SDS011;7188;56.070;12.698;2022-07-25T00:28:15;3.37;;;2.17;;
14209;SDS011;7188;56.070;12.698;2022-07-25T00:30:40;2.57;;;2.27;;
14209;SDS011;7188;56.070;12.698;2022-07-25T00:33:06;1.97;;;1.87;;
14209;SDS011;7188;56.070;12.698;2022-07-25T00:35:34;2.93;;;1.70;;
14209;SDS011;7188;56.070;12.698;2022-07-25T00:38:00;2.07;;;1.77;;
14209;SDS011;7188;56.070;12.698;2022-07-25T00:40:26;2.70;;;2.50;;
14209;SDS011;7188;56.070;12.698;2022-07-25T00:42:51;2.63;;;2.13;;
14209;SDS011;7188;56.070;12.698;2022-07-25T00:45:17;4.50;;;2.10;;
14209;SDS011;7188;56.070;12.698;2022-07-25T00:47:43;2.20;;;2.00;;
14209;SDS011;7188;56.070;12.698;2022-07-25T00:50:08;2.70;;;1.93;;
14209;SDS011;7188;56.070;12.698;2022-07-25T00:52:34;2.87;;;2.30;;
14209;SDS011;7188;56.070;12.698;2022-07-25T00:55:03;2.53;;;2.30;;
14209;SDS011;7188;56.070;12.698;2022-07-25T00:57:29;2.13;;;2.03;;
14209;SDS011;7188;56.070;12.698;2022-07-25T00:59:55;2.43;;;2.17;;
14209;SDS011;7188;56.070;12.698;2022-07-25T01:02:21;3.07;;;2.23;;
14209;SDS011;7188;56.070;12.698;2022-07-25T01:04:47;1.73;;;1.63;;
14209;SDS011;7188;56.070;12.698;2022-07-25T01:07:12;2.27;;;2.03;;
14209;SDS011;7188;56.070;12.698;2022-07-25T01:09:38;2.27;;;1.97;;
14209;SDS011;7188;56.070;12.698;2022-07-25T01:12:04;5.37;;;2.50;;
14209;SDS011;7188;56.070;12.698;2022-07-25T01:14:30;4.00;;;2.47;;
14209;SDS011;7188;56.070;12.698;2022-07-25T01:16:56;2.60;;;2.40;;
14209;SDS011;7188;56.070;12.698;2022-07-25T01:19:21;3.87;;;2.40;;
14209;SDS011;7188;56.070;12.698;2022-07-25T01:21:47;6.53;;;2.33;;
14209;SDS011;7188;56.070;12.698;2022-07-25T01:24:13;3.07;;;2.27;;
14209;SDS011;7188;56.070;12.698;2022-07-25T01:26:38;3.60;;;2.63;;
14209;SDS011;7188;56.070;12.698;2022-07-25T01:29:04;3.23;;;2.20;;
14209;SDS011;7188;56.070;12.698;2022-07-25T01:31:30;2.50;;;2.03;;
14209;SDS011;7188;56.070;12.698;2022-07-25T01:33:56;3.37;;;2.70;;
14209;SDS011;7188;56.070;12.698;2022-07-25T01:36:22;4.90;;;2.90;;
14209;SDS011;7188;56.070;12.698;2022-07-25T01:38:47;5.77;;;2.70;;
14209;SDS011;7188;56.070;12.698;2022-07-25T01:41:13;2.73;;;2.53;;
14209;SDS011;7188;56.070;12.698;2022-07-25T01:43:39;3.20;;;2.63;;
14209;SDS011;7188;56.070;12.698;2022-07-25T01:46:04;2.83;;;2.63;;
14209;SDS011;7188;56.070;12.698;2022-07-25T01:48:31;3.50;;;3.20;;
14209;SDS011;7188;56.070;12.698;2022-07-25T01:50:57;2.57;;;2.37;;
14209;SDS011;7188;56.070;12.698;2022-07-25T01:53:23;3.67;;;2.53;;
14209;SDS011;7188;56.070;12.698;2022-07-25T01:55:48;3.93;;;3.13;;
14209;SDS011;7188;56.070;12.698;2022-07-25T01:58:14;4.47;;;3.07;;
14209;SDS011;7188;56.070;12.698;2022-07-25T02:00:40;3.57;;;2.67;;
14209;SDS011;7188;56.070;12.698;2022-07-25T02:03:05;2.80;;;2.57;;
14209;SDS011;7188;56.070;12.698;2022-07-25T02:05:50;3.40;;;2.70;;
14209;SDS011;7188;56.070;12.698;2022-07-25T02:08:16;3.13;;;2.80;;
14209;SDS011;7188;56.070;12.698;2022-07-25T02:10:41;3.80;;;2.47;;
14209;SDS011;7188;56.070;12.698;2022-07-25T02:13:07;3.40;;;3.07;;
14209;SDS011;7188;56.070;12.698;2022-07-25T02:15:33;3.10;;;2.87;;
14209;SDS011;7188;56.070;12.698;2022-07-25T02:17:59;3.30;;;3.00;;
14209;SDS011;7188;56.070;12.698;2022-07-25T02:20:25;3.37;;;2.87;;
14209;SDS011;7188;56.070;12.698;2022-07-25T02:22:51;2.60;;;2.47;;
14209;SDS011;7188;56.070;12.698;2022-07-25T02:25:16;3.53;;;3.03;;
14209;SDS011;7188;56.070;12.698;2022-07-25T02:27:42;2.73;;;2.53;;
14209;SDS011;7188;56.070;12.698;2022-07-25T02:30:08;3.10;;;2.77;;
14209;SDS011;7188;56.070;12.698;2022-07-25T02:32:33;3.13;;;2.93;;
14209;SDS011;7188;56.070;12.698;2022-07-25T02:34:59;3.30;;;3.00;;
14209;SDS011;7188;56.070;12.698;2022-07-25T02:37:25;4.23;;;3.17;;
14209;SDS011;7188;56.070;12.698;2022-07-25T02:39:51;4.97;;;3.63;;
14209;SDS011;7188;56.070;12.698;2022-07-25T02:42:16;3.67;;;3.03;;
14209;SDS011;7188;56.070;12.698;2022-07-25T02:44:42;3.10;;;2.80;;
14209;SDS011;7188;56.070;12.698;2022-07-25T02:47:08;3.67;;;3.37;;
14209;SDS011;7188;56.070;12.698;2022-07-25T02:49:33;5.63;;;2.90;;
14209;SDS011;7188;56.070;12.698;2022-07-25T02:51:59;4.23;;;3.47;;
14209;SDS011;7188;56.070;12.698;2022-07-25T02:54:26;3.20;;;2.73;;
14209;SDS011;7188;56.070;12.698;2022-07-25T02:56:52;5.00;;;2.70;;
14209;SDS011;7188;56.070;12.698;2022-07-25T02:59:17;3.97;;;3.10;;
14209;SDS011;7188;56.070;12.698;2022-07-25T03:01:43;7.00;;;3.17;;
14209;SDS011;7188;56.070;12.698;2022-07-25T03:04:08;3.93;;;2.80;;
14209;SDS011;7188;56.070;12.698;2022-07-25T03:06:34;4.03;;;2.93;;
14209;SDS011;7188;56.070;12.698;2022-07-25T03:09:00;4.00;;;3.23;;
14209;SDS011;7188;56.070;12.698;2022-07-25T03:11:25;5.33;;;3.27;;
14209;SDS011;7188;56.070;12.698;2022-07-25T03:13:51;6.00;;;3.10;;
14209;SDS011;7188;56.070;12.698;2022-07-25T03:16:17;3.53;;;3.10;;
14209;SDS011;7188;56.070;12.698;2022-07-25T03:18:42;3.17;;;2.83;;
14209;SDS011;7188;56.070;12.698;2022-07-25T03:21:08;4.13;;;2.97;;
14209;SDS011;7188;56.070;12.698;2022-07-25T03:23:33;3.50;;;3.20;;
14209;SDS011;7188;56.070;12.698;2022-07-25T03:25:59;3.20;;;2.90;;
14209;SDS011;7188;56.070;12.698;2022-07-25T03:28:25;2.77;;;2.57;;
14209;SDS011;7188;56.070;12.698;2022-07-25T03:30:51;3.63;;;3.10;;
14209;SDS011;7188;56.070;12.698;2022-07-25T03:33:17;6.03;;;3.33;;
14209;SDS011;7188;56.070;12.698;2022-07-25T03:35:42;3.03;;;2.77;;
14209;SDS011;7188;56.070;12.698;2022-07-25T03:38:09;3.57;;;3.03;;
14209;SDS011;7188;56.070;12.698;2022-07-25T03:40:35;4.53;;;2.63;;
14209;SDS011;7188;56.070;12.698;2022-07-25T03:45:45;2.70;;;2.50;;
14209;SDS011;7188;56.070;12.698;2022-07-25T03:48:10;3.40;;;2.67;;
14209;SDS011;7188;56.070;12.698;2022-07-25T03:50:36;3.30;;;2.80;;
14209;SDS011;7188;56.070;12.698;2022-07-25T03:53:02;3.27;;;2.93;;
14209;SDS011;7188;56.070;12.698;2022-07-25T03:55:28;4.00;;;3.50;;
14209;SDS011;7188;56.070;12.698;2022-07-25T03:57:53;2.80;;;2.57;;
14209;SDS011;7188;56.070;12.698;2022-07-25T04:00:28;4.23;;;2.63;;
14209;SDS011;7188;56.070;12.698;2022-07-25T04:02:54;3.33;;;2.90;;
14209;SDS011;7188;56.070;12.698;2022-07-25T04:05:19;4.53;;;3.10;;
14209;SDS011;7188;56.070;12.698;2022-07-25T04:07:45;3.90;;;2.83;;
14209;SDS011;7188;56.070;12.698;2022-07-25T04:10:11;3.23;;;2.93;;
14209;SDS011;7188;56.070;12.698;2022-07-25T04:12:36;4.67;;;3.03;;
14209;SDS011;7188;56.070;12.698;2022-07-25T04:15:03;6.93;;;3.37;;
14209;SDS011;7188;56.070;12.698;2022-07-25T04:17:29;3.17;;;2.63;;
14209;SDS011;7188;56.070;12.698;2022-07-25T04:19:54;3.83;;;2.73;;
14209;SDS011;7188;56.070;12.698;2022-07-25T04:22:20;4.13;;;2.83;;
14209;SDS011;7188;56.070;12.698;2022-07-25T04:24:46;3.57;;;2.80;;
14209;SDS011;7188;56.070;12.698;2022-07-25T04:27:12;5.30;;;3.23;;
14209;SDS011;7188;56.070;12.698;2022-07-25T04:29:38;2.63;;;2.53;;
14209;SDS011;7188;56.070;12.698;2022-07-25T04:32:04;4.10;;;3.00;;
14209;SDS011;7188;56.070;12.698;2022-07-25T04:34:30;4.40;;;2.93;;
14209;SDS011;7188;56.070;12.698;2022-07-25T04:36:55;3.03;;;2.83;;
14209;SDS011;7188;56.070;12.698;2022-07-25T04:39:21;3.50;;;2.70;;
14209;SDS011;7188;56.070;12.698;2022-07-25T04:41:47;4.93;;;3.00;;
14209;SDS011;7188;56.070;12.698;2022-07-25T04:44:13;3.23;;;2.90;;
14209;SDS011;7188;56.070;12.698;2022-07-25T04:46:39;3.37;;;3.03;;
14209;SDS011;7188;56.070;12.698;2022-07-25T04:49:05;2.60;;;2.40;;
14209;SDS011;7188;56.070;12.698;2022-07-25T04:51:30;3.67;;;2.57;;
14209;SDS011;7188;56.070;12.698;2022-07-25T04:53:56;2.53;;;2.33;;
14209;SDS011;7188;56.070;12.698;2022-07-25T04:56:22;2.17;;;2.07;;
14209;SDS011;7188;56.070;12.698;2022-07-25T04:58:47;3.47;;;2.63;;
14209;SDS011;7188;56.070;12.698;2022-07-25T05:01:13;4.37;;;2.60;;
14209;SDS011;7188;56.070;12.698;2022-07-25T05:03:39;2.90;;;2.63;;
14209;SDS011;7188;56.070;12.698;2022-07-25T05:06:11;3.63;;;2.73;;
14209;SDS011;7188;56.070;12.698;2022-07-25T05:08:36;3.03;;;2.70;;
14209;SDS011;7188;56.070;12.698;2022-07-25T05:11:02;5.90;;;2.80;;
14209;SDS011;7188;56.070;12.698;2022-07-25T05:13:28;3.10;;;2.10;;
14209;SDS011;7188;56.070;12.698;2022-07-25T05:15:53;4.10;;;2.67;;
14209;SDS011;7188;56.070;12.698;2022-07-25T05:18:19;3.20;;;2.23;;
14209;SDS011;7188;56.070;12.698;2022-07-25T05:20:45;2.37;;;2.17;;
14209;SDS011;7188;56.070;12.698;2022-07-25T05:23:11;3.87;;;2.30;;
14209;SDS011;7188;56.070;12.698;2022-07-25T05:25:37;2.27;;;2.13;;
14209;SDS011;7188;56.070;12.698;2022-07-25T05:28:03;5.70;;;2.83;;
14209;SDS011;7188;56.070;12.698;2022-07-25T05:30:29;2.13;;;2.00;;
14209;SDS011;7188;56.070;12.698;2022-07-25T05:32:54;2.47;;;1.60;;
14209;SDS011;7188;56.070;12.698;2022-07-25T05:35:20;7.03;;;2.90;;
14209;SDS011;7188;56.070;12.698;2022-07-25T05:37:45;4.57;;;2.93;;
14209;SDS011;7188;56.070;12.698;2022-07-25T05:40:11;3.60;;;2.37;;
14209;SDS011;7188;56.070;12.698;2022-07-25T05:42:37;6.47;;;2.53;;
14209;SDS011;7188;56.070;12.698;2022-07-25T05:45:03;3.35;;;2.08;;
14209;SDS011;7188;56.070;12.698;2022-07-25T05:47:29;2.93;;;2.30;;
14209;SDS011;7188;56.070;12.698;2022-07-25T05:49:54;2.87;;;2.63;;
14209;SDS011;7188;56.070;12.698;2022-07-25T05:52:20;1.97;;;1.77;;
14209;SDS011;7188;56.070;12.698;2022-07-25T05:54:46;2.05;;;1.95;;
14209;SDS011;7188;56.070;12.698;2022-07-25T05:57:12;2.97;;;2.63;;
14209;SDS011;7188;56.070;12.698;2022-07-25T05:59:37;2.42;;;2.05;;
14209;SDS011;7188;56.070;12.698;2022-07-25T06:02:03;3.25;;;2.42;;
14209;SDS011;7188;56.070;12.698;2022-07-25T06:04:29;3.90;;;2.43;;
14209;SDS011;7188;56.070;12.698;2022-07-25T06:06:54;2.30;;;2.10;;
14209;SDS011;7188;56.070;12.698;2022-07-25T06:09:21;3.85;;;2.13;;
14209;SDS011;7188;56.070;12.698;2022-07-25T06:11:47;1.90;;;1.80;;
14209;SDS011;7188;56.070;12.698;2022-07-25T06:14:14;3.50;;;2.08;;
14209;SDS011;7188;56.070;12.698;2022-07-25T06:16:40;3.40;;;2.28;;
14209;SDS011;7188;56.070;12.698;2022-07-25T06:19:06;2.03;;;1.88;;
14209;SDS011;7188;56.070;12.698;2022-07-25T06:21:31;2.10;;;1.90;;
14209;SDS011;7188;56.070;12.698;2022-07-25T06:23:57;2.42;;;2.20;;
14209;SDS011;7188;56.070;12.698;2022-07-25T06:26:23;2.65;;;2.20;;
14209;SDS011;7188;56.070;12.698;2022-07-25T06:28:49;3.30;;;1.80;;
14209;SDS011;7188;56.070;12.698;2022-07-25T06:31:15;3.47;;;2.13;;
14209;SDS011;7188;56.070;12.698;2022-07-25T06:33:41;1.67;;;1.58;;
14209;SDS011;7188;56.070;12.698;2022-07-25T06:36:07;2.60;;;2.22;;
14209;SDS011;7188;56.070;12.698;2022-07-25T06:38:33;2.15;;;2.05;;
14209;SDS011;7188;56.070;12.698;2022-07-25T06:40:58;6.90;;;2.25;;
14209;SDS011;7188;56.070;12.698;2022-07-25T06:43:24;2.65;;;1.73;;
14209;SDS011;7188;56.070;12.698;2022-07-25T06:45:50;2.40;;;2.20;;
14209;SDS011;7188;56.070;12.698;2022-07-25T06:48:16;2.10;;;2.00;;
14209;SDS011;7188;56.070;12.698;2022-07-25T06:50:42;4.63;;;1.77;;
14209;SDS011;7188;56.070;12.698;2022-07-25T06:53:08;2.75;;;1.73;;
14209;SDS011;7188;56.070;12.698;2022-07-25T06:55:46;3.58;;;1.70;;
14209;SDS011;7188;56.070;12.698;2022-07-25T06:58:11;3.90;;;1.70;;
14209;SDS011;7188;56.070;12.698;2022-07-25T07:00:37;2.85;;;1.77;;
14209;SDS011;7188;56.070;12.698;2022-07-25T07:03:03;2.92;;;1.90;;
14209;SDS011;7188;56.070;12.698;2022-07-25T07:05:31;1.70;;;1.60;;
14209;SDS011;7188;56.070;12.698;2022-07-25T07:07:58;1.95;;;1.75;;
14209;SDS011;7188;56.070;12.698;2022-07-25T07:10:24;5.73;;;1.97;;
14209;SDS011;7188;56.070;12.698;2022-07-25T07:13:00;5.35;;;2.05;;
14209;SDS011;7188;56.070;12.698;2022-07-25T07:15:37;2.67;;;1.75;;
14209;SDS011;7188;56.070;12.698;2022-07-25T07:18:04;2.22;;;2.00;;
14209;SDS011;7188;56.070;12.698;2022-07-25T07:20:30;1.67;;;1.58;;
14209;SDS011;7188;56.070;12.698;2022-07-25T07:22:56;3.22;;;1.63;;
14209;SDS011;7188;56.070;12.698;2022-07-25T07:25:22;1.73;;;1.60;;
14209;SDS011;7188;56.070;12.698;2022-07-25T07:27:48;2.80;;;1.80;;
14209;SDS011;7188;56.070;12.698;2022-07-25T07:30:15;1.92;;;1.70;;
14209;SDS011;7188;56.070;12.698;2022-07-25T07:32:42;1.80;;;1.70;;
14209;SDS011;7188;56.070;12.698;2022-07-25T07:35:08;1.60;;;1.50;;
14209;SDS011;7188;56.070;12.698;2022-07-25T07:37:35;1.65;;;1.40;;
14209;SDS011;7188;56.070;12.698;2022-07-25T07:40:01;2.88;;;1.42;;
14209;SDS011;7188;56.070;12.698;2022-07-25T07:42:35;3.10;;;1.92;;
14209;SDS011;7188;56.070;12.698;2022-07-25T07:45:02;1.75;;;1.65;;
14209;SDS011;7188;56.070;12.698;2022-07-25T07:47:28;1.52;;;1.40;;
14209;SDS011;7188;56.070;12.698;2022-07-25T07:49:53;2.65;;;1.90;;
14209;SDS011;7188;56.070;12.698;2022-07-25T07:52:19;1.92;;;1.73;;
14209;SDS011;7188;56.070;12.698;2022-07-25T07:54:44;2.10;;;1.42;;
14209;SDS011;7188;56.070;12.698;2022-07-25T07:57:29;2.13;;;1.95;;
14209;SDS011;7188;56.070;12.698;2022-07-25T07:59:54;3.33;;;1.88;;
14209;SDS011;7188;56.070;12.698;2022-07-25T08:02:20;3.55;;;1.70;;
14209;SDS011;7188;56.070;12.698;2022-07-25T08:04:46;3.03;;;1.95;;
14209;SDS011;7188;56.070;12.698;2022-07-25T08:07:11;2.88;;;1.50;;
14209;SDS011;7188;56.070;12.698;2022-07-25T08:09:38;3.47;;;1.50;;
14209;SDS011;7188;56.070;12.698;2022-07-25T08:12:04;2.08;;;1.83;;
14209;SDS011;7188;56.070;12.698;2022-07-25T08:14:30;1.80;;;1.60;;
14209;SDS011;7188;56.070;12.698;2022-07-25T08:16:56;3.63;;;1.55;;
14209;SDS011;7188;56.070;12.698;2022-07-25T08:19:22;4.22;;;1.60;;
14209;SDS011;7188;56.070;12.698;2022-07-25T08:21:48;2.03;;;1.92;;
14209;SDS011;7188;56.070;12.698;2022-07-25T08:24:13;2.25;;;1.80;;
14209;SDS011;7188;56.070;12.698;2022-07-25T08:26:39;2.42;;;1.38;;
14209;SDS011;7188;56.070;12.698;2022-07-25T08:29:05;1.77;;;1.30;;
14209;SDS011;7188;56.070;12.698;2022-07-25T08:31:31;2.90;;;1.63;;
14209;SDS011;7188;56.070;12.698;2022-07-25T08:33:56;3.53;;;1.75;;
14209;SDS011;7188;56.070;12.698;2022-07-25T08:36:23;1.77;;;1.50;;
14209;SDS011;7188;56.070;12.698;2022-07-25T08:38:48;3.92;;;1.70;;
14209;SDS011;7188;56.070;12.698;2022-07-25T08:41:15;2.55;;;1.45;;
14209;SDS011;7188;56.070;12.698;2022-07-25T08:43:41;3.28;;;2.05;;
14209;SDS011;7188;56.070;12.698;2022-07-25T08:46:09;2.00;;;1.80;;
14209;SDS011;7188;56.070;12.698;2022-07-25T08:48:35;2.47;;;1.52;;
14209;SDS011;7188;56.070;12.698;2022-07-25T08:51:02;1.65;;;1.55;;
14209;SDS011;7188;56.070;12.698;2022-07-25T08:53:29;1.77;;;1.67;;
14209;SDS011;7188;56.070;12.698;2022-07-25T08:55:55;5.25;;;1.50;;
14209;SDS011;7188;56.070;12.698;2022-07-25T08:58:21;5.00;;;1.67;;
14209;SDS011;7188;56.070;12.698;2022-07-25T09:00:46;1.98;;;1.77;;
14209;SDS011;7188;56.070;12.698;2022-07-25T09:03:12;4.22;;;2.00;;
14209;SDS011;7188;56.070;12.698;2022-07-25T09:05:38;2.78;;;1.80;;
14209;SDS011;7188;56.070;12.698;2022-07-25T09:08:13;1.58;;;1.45;;
14209;SDS011;7188;56.070;12.698;2022-07-25T09:10:44;6.45;;;1.80;;
14209;SDS011;7188;56.070;12.698;2022-07-25T09:13:15;2.20;;;1.23;;
14209;SDS011;7188;56.070;12.698;2022-07-25T09:15:46;1.95;;;1.30;;
14209;SDS011;7188;56.070;12.698;2022-07-25T09:18:14;2.85;;;1.70;;
14209;SDS011;7188;56.070;12.698;2022-07-25T09:20:44;3.00;;;1.23;;
14209;SDS011;7188;56.070;12.698;2022-07-25T09:23:13;3.63;;;1.15;;
14209;SDS011;7188;56.070;12.698;2022-07-25T09:25:40;1.50;;;1.38;;
14209;SDS011;7188;56.070;12.698;2022-07-25T09:30:39;2.17;;;1.42;;
14209;SDS011;7188;56.070;12.698;2022-07-25T09:33:16;1.08;;;1.05;;
14209;SDS011;7188;56.070;12.698;2022-07-25T09:35:41;2.40;;;1.30;;
14209;SDS011;7188;56.070;12.698;2022-07-25T09:38:08;1.20;;;1.10;;
14209;SDS011;7188;56.070;12.698;2022-07-25T09:40:40;1.63;;;1.40;;
14209;SDS011;7188;56.070;12.698;2022-07-25T09:43:05;1.95;;;0.98;;
14209;SDS011;7188;56.070;12.698;2022-07-25T09:45:31;2.45;;;1.00;;
14209;SDS011;7188;56.070;12.698;2022-07-25T09:48:01;1.85;;;1.30;;
14209;SDS011;7188;56.070;12.698;2022-07-25T09:50:29;1.65;;;0.80;;
14209;SDS011;7188;56.070;12.698;2022-07-25T09:52:58;1.40;;;1.30;;
14209;SDS011;7188;56.070;12.698;2022-07-25T09:55:26;3.65;;;1.05;;
14209;SDS011;7188;56.070;12.698;2022-07-25T09:57:53;1.17;;;1.17;;
14209;SDS011;7188;56.070;12.698;2022-07-25T10:00:20;0.90;;;0.90;;
14209;SDS011;7188;56.070;12.698;2022-07-25T10:07:49;2.80;;;1.10;;
14209;SDS011;7188;56.070;12.698;2022-07-25T10:10:24;2.42;;;0.93;;
14209;SDS011;7188;56.070;12.698;2022-07-25T10:15:54;1.60;;;1.05;;
14209;SDS011;7188;56.070;12.698;2022-07-25T10:18:21;1.00;;;1.00;;
14209;SDS011;7188;56.070;12.698;2022-07-25T10:20:49;2.28;;;1.20;;
14209;SDS011;7188;56.070;12.698;2022-07-25T10:25:46;2.05;;;1.10;;
14209;SDS011;7188;56.070;12.698;2022-07-25T10:28:33;1.80;;;1.05;;
14209;SDS011;7188;56.070;12.698;2022-07-25T10:31:41;1.65;;;1.15;;
14209;SDS011;7188;56.070;12.698;2022-07-25T10:34:04;2.70;;;1.20;;
14209;SDS011;7188;56.070;12.698;2022-07-25T10:39:10;2.53;;;1.13;;
14209;SDS011;7188;56.070;12.698;2022-07-25T10:41:37;1.40;;;1.00;;
14209;SDS011;7188;56.070;12.698;2022-07-25T10:44:10;1.00;;;1.00;;
14209;SDS011;7188;56.070;12.698;2022-07-25T10:46:40;1.20;;;1.10;;
14209;SDS011;7188;56.070;12.698;2022-07-25T10:49:19;3.22;;;1.02;;
14209;SDS011;7188;56.070;12.698;2022-07-25T10:51:56;1.13;;;1.10;;
14209;SDS011;7188;56.070;12.698;2022-07-25T10:54:23;2.38;;;1.20;;
14209;SDS011;7188;56.070;12.698;2022-07-25T10:56:56;0.85;;;0.82;;
14209;SDS011;7188;56.070;12.698;2022-07-25T11:01:52;1.00;;;1.00;;
14209;SDS011;7188;56.070;12.698;2022-07-25T11:04:18;2.35;;;1.02;;
14209;SDS011;7188;56.070;12.698;2022-07-25T11:06:44;1.02;;;1.02;;
14209;SDS011;7188;56.070;12.698;2022-07-25T11:09:14;1.67;;;1.10;;
14209;SDS011;7188;56.070;12.698;2022-07-25T11:11:46;1.00;;;1.00;;
14209;SDS011;7188;56.070;12.698;2022-07-25T11:14:20;2.25;;;1.10;;
14209;SDS011;7188;56.070;12.698;2022-07-25T11:19:38;1.40;;;1.10;;
14209;SDS011;7188;56.070;12.698;2022-07-25T11:22:04;1.60;;;1.00;;
14209;SDS011;7188;56.070;12.698;2022-07-25T11:24:34;2.08;;;0.90;;
14209;SDS011;7188;56.070;12.698;2022-07-25T11:27:00;2.03;;;1.15;;
14209;SDS011;7188;56.070;12.698;2022-07-25T11:29:27;6.53;;;1.10;;
14209;SDS011;7188;56.070;12.698;2022-07-25T11:34:20;1.40;;;1.30;;
14209;SDS011;7188;56.070;12.698;2022-07-25T11:36:49;3.95;;;1.10;;
14209;SDS011;7188;56.070;12.698;2022-07-25T11:39:16;1.23;;;0.85;;
14209;SDS011;7188;56.070;12.698;2022-07-25T11:41:42;2.25;;;0.90;;
14209;SDS011;7188;56.070;12.698;2022-07-25T11:44:08;2.70;;;1.00;;
14209;SDS011;7188;56.070;12.698;2022-07-25T11:46:43;1.58;;;1.20;;
14209;SDS011;7188;56.070;12.698;2022-07-25T11:49:09;0.98;;;0.95;;
14209;SDS011;7188;56.070;12.698;2022-07-25T11:51:36;3.28;;;1.40;;
14209;SDS011;7188;56.070;12.698;2022-07-25T11:54:09;4.47;;;1.17;;
14209;SDS011;7188;56.070;12.698;2022-07-25T11:56:39;2.20;;;1.13;;
14209;SDS011;7188;56.070;12.698;2022-07-25T11:59:05;3.17;;;1.05;;
14209;SDS011;7188;56.070;12.698;2022-07-25T12:01:35;2.92;;;1.13;;
14209;SDS011;7188;56.070;12.698;2022-07-25T12:04:12;1.05;;;0.90;;
14209;SDS011;7188;56.070;12.698;2022-07-25T12:06:43;1.30;;;1.20;;
14209;SDS011;7188;56.070;12.698;2022-07-25T12:11:39;2.40;;;1.05;;
14209;SDS011;7188;56.070;12.698;2022-07-25T12:14:05;2.75;;;1.10;;
14209;SDS011;7188;56.070;12.698;2022-07-25T12:16:31;4.78;;;1.20;;
14209;SDS011;7188;56.070;12.698;2022-07-25T12:18:57;2.75;;;1.38;;
14209;SDS011;7188;56.070;12.698;2022-07-25T12:21:24;1.85;;;1.02;;
14209;SDS011;7188;56.070;12.698;2022-07-25T12:23:50;3.22;;;1.20;;
14209;SDS011;7188;56.070;12.698;2022-07-25T12:26:16;3.58;;;1.15;;
14209;SDS011;7188;56.070;12.698;2022-07-25T12:28:42;1.20;;;1.10;;
14209;SDS011;7188;56.070;12.698;2022-07-25T12:31:07;2.05;;;1.48;;
14209;SDS011;7188;56.070;12.698;2022-07-25T12:33:34;4.28;;;1.63;;
14209;SDS011;7188;56.070;12.698;2022-07-25T12:36:00;1.40;;;1.02;;
14209;SDS011;7188;56.070;12.698;2022-07-25T12:38:26;1.48;;;1.38;;
14209;SDS011;7188;56.070;12.698;2022-07-25T12:40:53;2.60;;;1.30;;
14209;SDS011;7188;56.070;12.698;2022-07-25T12:43:19;2.60;;;1.30;;
14209;SDS011;7188;56.070;12.698;2022-07-25T12:45:45;2.47;;;1.58;;
14209;SDS011;7188;56.070;12.698;2022-07-25T12:48:11;2.20;;;1.02;;
14209;SDS011;7188;56.070;12.698;2022-07-25T12:50:38;3.97;;;1.50;;
14209;SDS011;7188;56.070;12.698;2022-07-25T12:53:05;4.60;;;1.48;;
14209;SDS011;7188;56.070;12.698;2022-07-25T12:55:31;4.68;;;1.33;;
14209;SDS011;7188;56.070;12.698;2022-07-25T12:57:56;4.28;;;1.30;;
14209;SDS011;7188;56.070;12.698;2022-07-25T13:00:22;1.88;;;1.77;;
14209;SDS011;7188;56.070;12.698;2022-07-25T13:02:49;6.22;;;1.52;;
14209;SDS011;7188;56.070;12.698;2022-07-25T13:05:16;2.13;;;1.27;;
14209;SDS011;7188;56.070;12.698;2022-07-25T13:07:42;3.03;;;1.70;;
14209;SDS011;7188;56.070;12.698;2022-07-25T13:10:08;2.30;;;1.40;;
14209;SDS011;7188;56.070;12.698;2022-07-25T13:12:34;3.65;;;1.33;;
14209;SDS011;7188;56.070;12.698;2022-07-25T13:15:00;1.38;;;1.30;;
14209;SDS011;7188;56.070;12.698;2022-07-25T13:17:27;3.08;;;1.60;;
14209;SDS011;7188;56.070;12.698;2022-07-25T13:19:53;2.40;;;1.52;;
14209;SDS011;7188;56.070;12.698;2022-07-25T13:22:19;3.25;;;1.50;;
14209;SDS011;7188;56.070;12.698;2022-07-25T13:24:45;3.92;;;1.95;;
14209;SDS011;7188;56.070;12.698;2022-07-25T13:27:10;1.88;;;1.50;;
14209;SDS011;7188;56.070;12.698;2022-07-25T13:29:36;3.45;;;1.88;;
14209;SDS011;7188;56.070;12.698;2022-07-25T13:32:02;2.08;;;1.60;;
14209;SDS011;7188;56.070;12.698;2022-07-25T13:34:28;2.50;;;1.55;;
14209;SDS011;7188;56.070;12.698;2022-07-25T13:36:54;2.83;;;1.70;;
14209;SDS011;7188;56.070;12.698;2022-07-25T13:39:20;4.22;;;1.45;;
14209;SDS011;7188;56.070;12.698;2022-07-25T13:41:46;2.28;;;1.38;;
14209;SDS011;7188;56.070;12.698;2022-07-25T13:44:13;1.80;;;1.70;;
14209;SDS011;7188;56.070;12.698;2022-07-25T13:46:39;2.15;;;1.40;;
14209;SDS011;7188;56.070;12.698;2022-07-25T13:49:06;2.15;;;1.60;;
14209;SDS011;7188;56.070;12.698;2022-07-25T13:51:31;4.22;;;1.75;;
14209;SDS011;7188;56.070;12.698;2022-07-25T13:53:57;2.45;;;1.52;;
14209;SDS011;7188;56.070;12.698;2022-07-25T13:56:22;3.42;;;1.75;;
14209;SDS011;7188;56.070;12.698;2022-07-25T13:58:48;5.50;;;1.63;;
14209;SDS011;7188;56.070;12.698;2022-07-25T14:01:14;2.58;;;1.48;;
14209;SDS011;7188;56.070;12.698;2022-07-25T14:03:39;5.45;;;1.52;;
14209;SDS011;7188;56.070;12.698;2022-07-25T14:06:07;1.98;;;1.70;;
14209;SDS011;7188;56.070;12.698;2022-07-25T14:08:35;3.75;;;1.70;;
14209;SDS011;7188;56.070;12.698;2022-07-25T14:11:01;1.63;;;1.52;;
14209;SDS011;7188;56.070;12.698;2022-07-25T14:13:29;3.10;;;1.63;;
14209;SDS011;7188;56.070;12.698;2022-07-25T14:15:57;4.88;;;1.67;;
14209;SDS011;7188;56.070;12.698;2022-07-25T14:18:24;3.50;;;1.67;;
14209;SDS011;7188;56.070;12.698;2022-07-25T14:20:50;1.67;;;1.58;;
14209;SDS011;7188;56.070;12.698;2022-07-25T14:23:15;3.63;;;1.77;;
14209;SDS011;7188;56.070;12.698;2022-07-25T14:25:41;5.28;;;1.42;;
14209;SDS011;7188;56.070;12.698;2022-07-25T14:28:07;3.83;;;2.08;;
14209;SDS011;7188;56.070;12.698;2022-07-25T14:30:33;2.33;;;1.70;;
14209;SDS011;7188;56.070;12.698;2022-07-25T14:32:59;4.25;;;2.05;;
14209;SDS011;7188;56.070;12.698;2022-07-25T14:35:24;3.50;;;1.83;;
14209;SDS011;7188;56.070;12.698;2022-07-25T14:37:50;3.03;;;2.00;;
14209;SDS011;7188;56.070;12.698;2022-07-25T14:40:16;5.43;;;2.33;;
14209;SDS011;7188;56.070;12.698;2022-07-25T14:42:42;4.88;;;2.90;;
14209;SDS011;7188;56.070;12.698;2022-07-25T14:45:08;3.17;;;2.10;;
14209;SDS011;7188;56.070;12.698;2022-07-25T14:47:34;6.07;;;2.45;;
14209;SDS011;7188;56.070;12.698;2022-07-25T14:50:00;5.10;;;2.35;;
14209;SDS011;7188;56.070;12.698;2022-07-25T14:52:26;3.25;;;2.33;;
14209;SDS011;7188;56.070;12.698;2022-07-25T14:54:51;3.97;;;3.00;;
14209;SDS011;7188;56.070;12.698;2022-07-25T14:57:17;5.50;;;2.75;;
14209;SDS011;7188;56.070;12.698;2022-07-25T14:59:43;2.97;;;2.67;;
14209;SDS011;7188;56.070;12.698;2022-07-25T15:02:08;6.20;;;2.92;;
14209;SDS011;7188;56.070;12.698;2022-07-25T15:04:35;3.35;;;3.03;;
14209;SDS011;7188;56.070;12.698;2022-07-25T15:07:01;6.40;;;2.75;;
14209;SDS011;7188;56.070;12.698;2022-07-25T15:09:26;4.55;;;2.78;;
14209;SDS011;7188;56.070;12.698;2022-07-25T15:11:52;3.92;;;2.50;;
14209;SDS011;7188;56.070;12.698;2022-07-25T15:14:18;5.60;;;2.75;;